EGSSEGGP

Guest
Details From EGSS - London Stansted
To EGGP - Liverpool John Lennon
Flight Number -
Tags Generated
Created
Modified
Stats Distance 143 nm / 264 km
Max Altitude 0 ft / 0 m
Waypoints 2
Social Downloads 2
Likes 0
Share VATSIM

Download

Looking for another format? Having issues loading an existing format? Contact us
Advertisement - Login to hide

Notes

Generated

Route

EGSS EGGP

ID Type Via Altitude Latitude Longitude Leg Dist Tot Dist Heading (true) Name
O EGSS APT - 0 ft / 0 m 51.87508˚ 0.21993˚ - 0 nm - -
O EGGP APT - 0 ft / 0 m 53.33288˚ -2.86602˚ 142 nm 142 nm 309° / 307° -

Altitude Profile

Advertisement - Login to hide

EGSS

Details ICAO EGSS (STN)
Name London Stansted
Region United Kingdom
Timezone Europe/London (UTC+0.0)
Stats Elevation 348 ft / 106 m (AMSL)
Location 51.885097° 0.234962°
Runways 1
Magnetic Variation 0.361° W

METAR

EGSS 181120Z AUTO 34006KT 9999 NCD 05/02 Q1029

Decode

TAF

TAF EGSS 180453Z 1806/1912 32005KT 9999 FEW030 PROB30 TEMPO 1806/1810 8000 BECMG 1814/1816 6000 BECMG 1816/1819 1200 BR BECMG 1819/1822 0300 FG VV/// TEMPO 1822/1910 FZFG PROB30 TEMPO 1822/1912 1500 BR SCT001 BECMG 1911/1912 2000 BKN002

Decode

Departure Runways

ID Width Length Bearing (true) Bearing (mag) Surface Threshold Offset Overrun Length
04 151 ft / 46 m 10,011 ft / 3,052 m 42.79° 43.15° Asphalt 994 ft / 303 m 0 ft / 0 m
22 151 ft / 46 m 10,011 ft / 3,052 m 222.81° 223.17° Asphalt 0 ft / 0 m 0 ft / 0 m

EGGP

Details ICAO EGGP (LPL)
Name Liverpool
Region United Kingdom
Timezone Europe/London (UTC+0.0)
Stats Elevation 80 ft / 24 m (AMSL)
Location 53.333632° -2.849769°
Runways 1
Magnetic Variation 1.673° W

METAR

EGGP 181120Z VRB02KT 8000 1000E BCFG BKN002 04/04 Q1030

Decode

TAF

TAF AMD EGGP 180841Z 1808/1906 13004KT 9999 FEW030 PROB30 TEMPO 1808/1811 0200 FG VV/// PROB30 TEMPO 1811/1818 4000 BR BKN004 BECMG 1818/1821 3000 BR PROB30 TEMPO 1819/1906 0200 FG VV///

Decode

Destination Runways

ID Width Length Bearing (true) Bearing (mag) Surface Threshold Offset Overrun Length
09 151 ft / 46 m 7,466 ft / 2,276 m 85.59° 87.26° Asphalt 180 ft / 55 m 0 ft / 0 m
27 151 ft / 46 m 7,466 ft / 2,276 m 265.61° 267.28° Asphalt 0 ft / 0 m 0 ft / 0 m

Approach Navaids

Runway Type Ident Frequency Range Bearing (true) Bearing (mag) Slope Elevation
09 Localiser ILVR 111.75 MHz 18 nm / 33 km 85.61° 87.29° - 77 ft / 23 m (AMSL)
09 Glidescope ILVR 111.75 MHz 10 nm / 19 km 85.60° 87.27° 3.00° 80 ft / 24 m (AMSL)
09 DME ILVR 111.75 MHz 18 nm / 33 km - - - 88 ft / 27 m (AMSL)
27 Localiser ILQ 111.75 MHz 18 nm / 33 km 265.05° 266.72° - 55 ft / 17 m (AMSL)
27 Glidescope ILQ 111.75 MHz 10 nm / 19 km 265.60° 267.27° 3.00° 80 ft / 24 m (AMSL)
27 DME ILQ 111.75 MHz 18 nm / 33 km - - - 88 ft / 27 m (AMSL)

Popular Alternatives